航空気象通報

ウインドサーファーのための航空気象通報による風予報です。

10/19-10/21の航空気象通報

2016年10月19日 23時41分29秒 | TAF

羽田空港
TAF RJTT 191105Z 1912/2018 12008KT 9999 FEW020 BKN030
BECMG 1916/1918 36006KT
BECMG 2000/2003 14008KT
BECMG 2006/2009 27006KT
BECMG 2009/2012 36016KT
日本時間19日21時-20日01時:120度から8ノットの風
01-03時:風が変化
03-09時:360度から6ノットの風
09-12時:風が変化
12-15時:140度から8ノットの風
15-18時:風が変化
18時:270度から6ノットの風
18-21時:風が変化
21時-21日03時:360度から16ノットの風

静岡空港
TAF RJNS 191107Z 1912/2018 28005KT 8000 FEW008 BKN015
TEMPO 1915/1918 4000 -SHRA BR FEW005 BKN008
BECMG 2000/2003 09006KT
BECMG 2009/2012 35004KT
日本時間19日21時-20日09時:280度から5ノットの風
09-12時:風が変化
12-18時:090度から6ノットの風
18-21時:風が変化
21時-21日03時:350度から4ノットの風

但し、20日00-03時の間:ときどき

福岡空港
TAF RJFF 191106Z 1912/2018 36005KT 9000 FEW010
BECMG 1914/1916 15003KT
BECMG 2000/2003 34012KT
BECMG 2012/2015 14003KT
日本時間19日21-23時:360度から5ノットの風
23時-20日01時:風が変化
01-09時:150度から3ノットの風
09-12時:風が変化
12-21時:340度から12ノットの風
21-24時:風が変化
21日00-03時:140度から3ノットの風

那覇空港
TAF ROAH 191105Z 1912/2018 08008KT 9999 FEW015
BECMG 1919/1921 11010KT
TEMPO 2003/2009 4000 SHRA FEW008 BKN015 FEW025CB
日本時間19日21時-20日04時:080度から8ノットの風
04-06時:風が変化
06時-21日03時:110度から10ノットの風

但し、20日12-18時の間:ときどき

石垣空港
TAF ROIG 191108Z 1912/2018 07014KT 9999 FEW010 SCT020
TEMPO 1916/1920 4000 SHRA
日本時間19日21時-21日03時:070度から14ノットの風

但し、20日01-05時の間:ときどき

マウイのカフルイ空港
PHOG 191138Z 1912/2012 05011KT P6SM SCT030 SCT045
FM191900 06019G28KT P6SM VCSH FEW030 BKN050
FM200900 05011KT P6SM SCT030 SCT045
ハワイ時間19日02-09時:050度から11ノットの風

09-23時:060度から19ノット、突風28ノット

23時-20日02時:050度から11ノットの風

サイパン空港
TAF PGSN 191131Z 1912/2012 07006KT P6SM VCSH FEW020 SCT060
マリアナ時間19日22時-20日22時:070度から6ノットの風

ジャンル:
お天気
コメント   この記事についてブログを書く
この記事をはてなブックマークに追加
« 10/18-10/20の航空気象通報 | トップ | 10/20-10/22の航空気象通報 »
最近の画像もっと見る

コメントを投稿

ブログ作成者から承認されるまでコメントは反映されません。

コメント利用規約に同意の上コメント投稿を行ってください。

数字4桁を入力し、投稿ボタンを押してください。

あわせて読む

トラックバック

この記事のトラックバック  Ping-URL
ブログ作成者から承認されるまでトラックバックは反映されません。
  • 30日以上前の記事に対するトラックバックは受け取らないよう設定されております。
  • 送信元の記事内容が半角英数のみのトラックバックは受け取らないよう設定されております。
  • このブログへのリンクがない記事からのトラックバックは受け取らないよう設定されております。
  • ※ブログ管理者のみ、編集画面で設定の変更が可能です。